sensor_id;sensor_type;location;lat;lon;timestamp;pressure;altitude;pressure_sealevel;temperature;humidity
18527;BME280;9393;42.158;24.748;2022-10-16T00:02:57;100269.56;;;15.46;61.32
18527;BME280;9393;42.158;24.748;2022-10-16T00:06:03;100275.97;;;15.43;61.58
18527;BME280;9393;42.158;24.748;2022-10-16T00:09:06;100279.13;;;15.47;61.38
18527;BME280;9393;42.158;24.748;2022-10-16T00:12:10;100276.00;;;15.26;62.14
18527;BME280;9393;42.158;24.748;2022-10-16T00:15:13;100276.56;;;15.11;62.80
18527;BME280;9393;42.158;24.748;2022-10-16T00:18:16;100270.97;;;15.06;63.14
18527;BME280;9393;42.158;24.748;2022-10-16T00:21:22;100283.41;;;15.04;63.07
18527;BME280;9393;42.158;24.748;2022-10-16T00:24:26;100282.97;;;15.09;62.68
18527;BME280;9393;42.158;24.748;2022-10-16T00:27:29;100278.31;;;15.29;62.30
18527;BME280;9393;42.158;24.748;2022-10-16T00:30:33;100278.25;;;15.21;62.47
18527;BME280;9393;42.158;24.748;2022-10-16T00:33:38;100274.19;;;14.83;63.56
18527;BME280;9393;42.158;24.748;2022-10-16T00:36:43;100273.38;;;14.82;63.72
18527;BME280;9393;42.158;24.748;2022-10-16T00:39:46;100288.22;;;14.56;64.36
18527;BME280;9393;42.158;24.748;2022-10-16T00:42:49;100277.81;;;14.64;64.35
18527;BME280;9393;42.158;24.748;2022-10-16T00:45:53;100279.88;;;14.43;65.31
18527;BME280;9393;42.158;24.748;2022-10-16T00:48:59;100296.03;;;14.48;65.09
18527;BME280;9393;42.158;24.748;2022-10-16T00:52:06;100304.06;;;14.64;64.49
18527;BME280;9393;42.158;24.748;2022-10-16T00:55:09;100299.41;;;14.58;64.73
18527;BME280;9393;42.158;24.748;2022-10-16T00:58:13;100300.31;;;14.66;64.43
18527;BME280;9393;42.158;24.748;2022-10-16T01:01:16;100307.91;;;14.42;65.23
18527;BME280;9393;42.158;24.748;2022-10-16T01:04:20;100310.44;;;14.61;64.74
18527;BME280;9393;42.158;24.748;2022-10-16T01:07:36;100319.66;;;14.48;65.46
18527;BME280;9393;42.158;24.748;2022-10-16T01:10:57;100330.50;;;14.53;64.88
18527;BME280;9393;42.158;24.748;2022-10-16T01:14:07;100329.81;;;14.78;64.06
18527;BME280;9393;42.158;24.748;2022-10-16T01:17:13;100335.56;;;14.82;63.88
18527;BME280;9393;42.158;24.748;2022-10-16T01:20:24;100333.78;;;14.82;64.13
18527;BME280;9393;42.158;24.748;2022-10-16T01:23:40;100330.22;;;14.56;64.71
18527;BME280;9393;42.158;24.748;2022-10-16T01:27:11;100331.88;;;14.30;65.14
18527;BME280;9393;42.158;24.748;2022-10-16T01:30:18;100336.19;;;14.21;65.61
18527;BME280;9393;42.158;24.748;2022-10-16T01:33:28;100336.94;;;14.41;64.78
18527;BME280;9393;42.158;24.748;2022-10-16T01:36:37;100335.44;;;14.29;65.33
18527;BME280;9393;42.158;24.748;2022-10-16T01:39:44;100335.00;;;14.43;64.92
18527;BME280;9393;42.158;24.748;2022-10-16T01:42:53;100338.69;;;14.50;64.43
18527;BME280;9393;42.158;24.748;2022-10-16T01:46:00;100346.88;;;14.64;63.54
18527;BME280;9393;42.158;24.748;2022-10-16T01:49:05;100347.47;;;14.76;63.12
18527;BME280;9393;42.158;24.748;2022-10-16T01:52:11;100356.59;;;14.27;64.81
18527;BME280;9393;42.158;24.748;2022-10-16T01:55:20;100354.31;;;14.42;64.07
18527;BME280;9393;42.158;24.748;2022-10-16T01:58:27;100353.72;;;14.75;63.23
18527;BME280;9393;42.158;24.748;2022-10-16T02:01:38;100354.25;;;14.24;64.87
18527;BME280;9393;42.158;24.748;2022-10-16T02:04:46;100354.63;;;14.02;65.53
18527;BME280;9393;42.158;24.748;2022-10-16T02:07:50;100356.75;;;14.26;64.78
18527;BME280;9393;42.158;24.748;2022-10-16T02:10:54;100353.00;;;14.55;63.63
18527;BME280;9393;42.158;24.748;2022-10-16T02:14:02;100351.84;;;14.68;63.63
18527;BME280;9393;42.158;24.748;2022-10-16T02:17:11;100345.00;;;14.57;63.39
18527;BME280;9393;42.158;24.748;2022-10-16T02:20:14;100353.50;;;14.69;63.37
18527;BME280;9393;42.158;24.748;2022-10-16T02:23:23;100358.50;;;14.62;63.94
18527;BME280;9393;42.158;24.748;2022-10-16T02:26:30;100362.03;;;14.71;63.39
18527;BME280;9393;42.158;24.748;2022-10-16T02:29:40;100366.13;;;14.55;63.87
18527;BME280;9393;42.158;24.748;2022-10-16T02:32:47;100355.34;;;14.58;63.58
18527;BME280;9393;42.158;24.748;2022-10-16T02:35:52;100359.31;;;14.62;63.72
18527;BME280;9393;42.158;24.748;2022-10-16T02:38:57;100364.81;;;14.69;63.25
18527;BME280;9393;42.158;24.748;2022-10-16T02:42:02;100374.25;;;14.62;63.72
18527;BME280;9393;42.158;24.748;2022-10-16T02:45:08;100379.03;;;14.49;64.33
18527;BME280;9393;42.158;24.748;2022-10-16T02:48:12;100375.06;;;14.62;63.77
18527;BME280;9393;42.158;24.748;2022-10-16T02:51:16;100373.81;;;14.39;64.72
18527;BME280;9393;42.158;24.748;2022-10-16T02:54:19;100384.69;;;14.07;65.81
18527;BME280;9393;42.158;24.748;2022-10-16T02:57:23;100383.38;;;13.84;66.38
18527;BME280;9393;42.158;24.748;2022-10-16T03:00:28;100383.25;;;14.23;65.10
18527;BME280;9393;42.158;24.748;2022-10-16T03:03:31;100388.84;;;14.10;65.34
18527;BME280;9393;42.158;24.748;2022-10-16T03:06:34;100390.72;;;14.17;64.92
18527;BME280;9393;42.158;24.748;2022-10-16T03:09:38;100395.72;;;14.11;65.02
18527;BME280;9393;42.158;24.748;2022-10-16T03:12:41;100389.91;;;14.17;65.13
18527;BME280;9393;42.158;24.748;2022-10-16T03:15:46;100394.31;;;13.70;67.09
18527;BME280;9393;42.158;24.748;2022-10-16T03:18:49;100400.72;;;14.04;65.62
18527;BME280;9393;42.158;24.748;2022-10-16T03:21:53;100401.19;;;14.37;64.51
18527;BME280;9393;42.158;24.748;2022-10-16T03:24:56;100403.97;;;14.26;64.88
18527;BME280;9393;42.158;24.748;2022-10-16T03:27:59;100402.22;;;14.53;63.62
18527;BME280;9393;42.158;24.748;2022-10-16T03:31:04;100404.31;;;14.50;63.63
18527;BME280;9393;42.158;24.748;2022-10-16T03:34:07;100405.03;;;14.42;64.18
18527;BME280;9393;42.158;24.748;2022-10-16T03:37:11;100409.31;;;14.71;63.21
18527;BME280;9393;42.158;24.748;2022-10-16T03:40:14;100406.03;;;14.59;63.61
18527;BME280;9393;42.158;24.748;2022-10-16T03:43:18;100411.69;;;14.27;64.73
18527;BME280;9393;42.158;24.748;2022-10-16T03:46:22;100416.06;;;14.46;63.67
18527;BME280;9393;42.158;24.748;2022-10-16T03:49:26;100415.03;;;14.56;63.00
18527;BME280;9393;42.158;24.748;2022-10-16T03:52:29;100419.88;;;14.61;62.89
18527;BME280;9393;42.158;24.748;2022-10-16T03:55:34;100420.13;;;14.31;63.87
18527;BME280;9393;42.158;24.748;2022-10-16T03:58:38;100429.25;;;14.27;64.13
18527;BME280;9393;42.158;24.748;2022-10-16T04:01:42;100426.72;;;14.44;63.32
18527;BME280;9393;42.158;24.748;2022-10-16T04:04:46;100430.16;;;14.45;63.52
18527;BME280;9393;42.158;24.748;2022-10-16T04:07:49;100430.72;;;14.39;63.62
18527;BME280;9393;42.158;24.748;2022-10-16T04:10:52;100435.22;;;14.09;64.57
18527;BME280;9393;42.158;24.748;2022-10-16T04:13:55;100428.22;;;13.91;65.54
18527;BME280;9393;42.158;24.748;2022-10-16T04:17:00;100425.59;;;13.91;65.54
18527;BME280;9393;42.158;24.748;2022-10-16T04:20:04;100423.59;;;14.22;64.51
18527;BME280;9393;42.158;24.748;2022-10-16T04:23:08;100427.16;;;14.21;64.27
18527;BME280;9393;42.158;24.748;2022-10-16T04:26:11;100434.63;;;13.50;67.30
18527;BME280;9393;42.158;24.748;2022-10-16T04:29:14;100424.22;;;13.87;65.73
18527;BME280;9393;42.158;24.748;2022-10-16T04:32:19;100430.16;;;13.98;64.92
18527;BME280;9393;42.158;24.748;2022-10-16T04:35:22;100434.06;;;14.22;64.14
18527;BME280;9393;42.158;24.748;2022-10-16T04:38:26;100437.13;;;14.17;64.06
18527;BME280;9393;42.158;24.748;2022-10-16T04:41:29;100430.16;;;13.98;64.50
18527;BME280;9393;42.158;24.748;2022-10-16T04:44:33;100425.81;;;14.16;63.73
18527;BME280;9393;42.158;24.748;2022-10-16T04:47:37;100435.41;;;13.98;64.18
18527;BME280;9393;42.158;24.748;2022-10-16T04:50:41;100436.13;;;13.81;65.00
18527;BME280;9393;42.158;24.748;2022-10-16T04:53:44;100434.63;;;13.59;65.78
18527;BME280;9393;42.158;24.748;2022-10-16T04:56:47;100443.44;;;13.49;66.12
18527;BME280;9393;42.158;24.748;2022-10-16T04:59:53;100451.59;;;13.27;66.59
18527;BME280;9393;42.158;24.748;2022-10-16T05:02:58;100459.06;;;13.41;66.12
18527;BME280;9393;42.158;24.748;2022-10-16T05:06:05;100453.81;;;13.41;65.93
18527;BME280;9393;42.158;24.748;2022-10-16T05:09:09;100446.81;;;12.92;67.96
18527;BME280;9393;42.158;24.748;2022-10-16T05:12:12;100457.50;;;13.09;67.36
18527;BME280;9393;42.158;24.748;2022-10-16T05:15:15;100460.84;;;13.31;66.66
18527;BME280;9393;42.158;24.748;2022-10-16T05:18:20;100460.97;;;13.48;65.82
18527;BME280;9393;42.158;24.748;2022-10-16T05:21:23;100468.09;;;13.94;64.16
18527;BME280;9393;42.158;24.748;2022-10-16T05:24:26;100478.38;;;14.25;63.16
18527;BME280;9393;42.158;24.748;2022-10-16T05:27:30;100476.31;;;14.38;62.50
18527;BME280;9393;42.158;24.748;2022-10-16T05:30:33;100478.19;;;14.55;61.65
18527;BME280;9393;42.158;24.748;2022-10-16T05:33:38;100489.31;;;14.10;62.67
18527;BME280;9393;42.158;24.748;2022-10-16T05:36:41;100485.75;;;14.11;62.58
18527;BME280;9393;42.158;24.748;2022-10-16T05:39:46;100494.84;;;14.07;62.78
18527;BME280;9393;42.158;24.748;2022-10-16T05:42:54;100501.31;;;14.23;62.50
18527;BME280;9393;42.158;24.748;2022-10-16T05:45:59;100510.53;;;14.46;62.29
18527;BME280;9393;42.158;24.748;2022-10-16T05:49:04;100513.44;;;14.80;62.12
18527;BME280;9393;42.158;24.748;2022-10-16T05:52:07;100515.91;;;14.91;60.38
18527;BME280;9393;42.158;24.748;2022-10-16T05:55:10;100515.22;;;15.16;59.53
18527;BME280;9393;42.158;24.748;2022-10-16T05:58:14;100515.75;;;15.20;61.16
18527;BME280;9393;42.158;24.748;2022-10-16T06:01:18;100521.31;;;15.61;59.44
18527;BME280;9393;42.158;24.748;2022-10-16T06:04:24;100516.94;;;15.88;58.49
18527;BME280;9393;42.158;24.748;2022-10-16T06:07:27;100521.56;;;15.94;58.14
18527;BME280;9393;42.158;24.748;2022-10-16T06:10:30;100527.59;;;16.30;57.03
18527;BME280;9393;42.158;24.748;2022-10-16T06:13:34;100523.59;;;16.43;56.27
18527;BME280;9393;42.158;24.748;2022-10-16T06:16:37;100528.97;;;16.59;56.18
18527;BME280;9393;42.158;24.748;2022-10-16T06:19:42;100538.25;;;16.72;56.49
18527;BME280;9393;42.158;24.748;2022-10-16T06:22:45;100536.75;;;17.03;55.30
18527;BME280;9393;42.158;24.748;2022-10-16T06:25:48;100546.25;;;17.38;54.24
18527;BME280;9393;42.158;24.748;2022-10-16T06:28:53;100542.81;;;17.45;55.09
18527;BME280;9393;42.158;24.748;2022-10-16T06:31:57;100545.25;;;17.39;54.51
18527;BME280;9393;42.158;24.748;2022-10-16T06:35:02;100551.44;;;17.63;53.88
18527;BME280;9393;42.158;24.748;2022-10-16T06:38:05;100554.59;;;17.83;53.48
18527;BME280;9393;42.158;24.748;2022-10-16T06:41:10;100556.09;;;17.94;53.04
18527;BME280;9393;42.158;24.748;2022-10-16T06:44:14;100560.88;;;18.14;53.36
18527;BME280;9393;42.158;24.748;2022-10-16T06:47:17;100561.19;;;18.36;52.51
18527;BME280;9393;42.158;24.748;2022-10-16T06:50:22;100559.19;;;18.62;51.86
18527;BME280;9393;42.158;24.748;2022-10-16T06:53:26;100562.50;;;18.56;51.92
18527;BME280;9393;42.158;24.748;2022-10-16T06:56:30;100570.25;;;18.49;52.39
18527;BME280;9393;42.158;24.748;2022-10-16T06:59:34;100577.22;;;18.50;52.29
18527;BME280;9393;42.158;24.748;2022-10-16T07:02:37;100577.31;;;18.81;51.62
18527;BME280;9393;42.158;24.748;2022-10-16T07:05:44;100579.78;;;19.30;50.52
18527;BME280;9393;42.158;24.748;2022-10-16T07:08:48;100574.09;;;19.49;50.11
18527;BME280;9393;42.158;24.748;2022-10-16T07:11:51;100577.81;;;19.62;50.04
18527;BME280;9393;42.158;24.748;2022-10-16T07:14:55;100582.88;;;19.41;49.77
18527;BME280;9393;42.158;24.748;2022-10-16T07:17:58;100577.16;;;19.22;50.38
18527;BME280;9393;42.158;24.748;2022-10-16T07:21:08;100581.47;;;19.61;50.57
18527;BME280;9393;42.158;24.748;2022-10-16T07:24:13;100587.53;;;19.93;49.49
18527;BME280;9393;42.158;24.748;2022-10-16T07:27:17;100580.25;;;19.95;49.30
18527;BME280;9393;42.158;24.748;2022-10-16T07:30:20;100580.31;;;20.24;48.91
18527;BME280;9393;42.158;24.748;2022-10-16T07:33:23;100580.03;;;20.27;47.86
18527;BME280;9393;42.158;24.748;2022-10-16T07:36:28;100577.41;;;20.56;48.05
18527;BME280;9393;42.158;24.748;2022-10-16T07:39:33;100571.31;;;20.71;47.46
18527;BME280;9393;42.158;24.748;2022-10-16T07:42:37;100580.34;;;20.91;47.42
18527;BME280;9393;42.158;24.748;2022-10-16T07:45:46;100577.81;;;21.12;46.99
18527;BME280;9393;42.158;24.748;2022-10-16T07:48:51;100575.31;;;21.40;46.34
18527;BME280;9393;42.158;24.748;2022-10-16T07:51:56;100582.16;;;21.70;45.22
18527;BME280;9393;42.158;24.748;2022-10-16T07:54:59;100584.06;;;21.76;45.52
18527;BME280;9393;42.158;24.748;2022-10-16T07:58:02;100586.66;;;21.70;45.69
18527;BME280;9393;42.158;24.748;2022-10-16T08:01:08;100579.41;;;21.42;46.07
18527;BME280;9393;42.158;24.748;2022-10-16T08:04:11;100586.56;;;20.69;47.50
18527;BME280;9393;42.158;24.748;2022-10-16T08:07:16;100583.50;;;21.45;46.04
18527;BME280;9393;42.158;24.748;2022-10-16T08:10:21;100589.00;;;21.79;44.97
18527;BME280;9393;42.158;24.748;2022-10-16T08:13:27;100567.19;;;21.27;46.24
18527;BME280;9393;42.158;24.748;2022-10-16T08:16:30;100583.22;;;21.76;45.24
18527;BME280;9393;42.158;24.748;2022-10-16T08:19:34;100579.88;;;22.03;44.76
18527;BME280;9393;42.158;24.748;2022-10-16T08:22:39;100573.16;;;22.35;44.27
18527;BME280;9393;42.158;24.748;2022-10-16T08:25:42;100573.13;;;22.28;44.42
18527;BME280;9393;42.158;24.748;2022-10-16T08:28:45;100572.16;;;22.63;43.75
18527;BME280;9393;42.158;24.748;2022-10-16T08:31:49;100577.94;;;22.67;43.39
18527;BME280;9393;42.158;24.748;2022-10-16T08:34:52;100579.84;;;22.52;43.75
18527;BME280;9393;42.158;24.748;2022-10-16T08:37:57;100576.13;;;22.46;43.47
18527;BME280;9393;42.158;24.748;2022-10-16T08:41:30;100565.41;;;22.89;42.36
18527;BME280;9393;42.158;24.748;2022-10-16T08:48:22;100578.69;;;23.36;41.97
18527;BME280;9393;42.158;24.748;2022-10-16T08:51:31;100572.09;;;23.19;41.24
18527;BME280;9393;42.158;24.748;2022-10-16T08:54:44;100567.75;;;23.72;40.51
18527;BME280;9393;42.158;24.748;2022-10-16T08:57:49;100568.31;;;23.48;40.39
18527;BME280;9393;42.158;24.748;2022-10-16T09:00:54;100571.53;;;23.30;40.31
18527;BME280;9393;42.158;24.748;2022-10-16T09:04:33;100575.94;;;23.64;39.74
18527;BME280;9393;42.158;24.748;2022-10-16T09:07:52;100565.88;;;23.46;39.42
18527;BME280;9393;42.158;24.748;2022-10-16T09:11:03;100570.47;;;23.31;39.84
18527;BME280;9393;42.158;24.748;2022-10-16T09:14:26;100568.06;;;23.36;40.18
18527;BME280;9393;42.158;24.748;2022-10-16T09:17:44;100563.06;;;22.79;41.01
18527;BME280;9393;42.158;24.748;2022-10-16T09:20:53;100569.03;;;23.29;39.68
18527;BME280;9393;42.158;24.748;2022-10-16T09:24:08;100563.34;;;22.91;39.11
18527;BME280;9393;42.158;24.748;2022-10-16T09:27:15;100566.09;;;22.21;38.97
18527;BME280;9393;42.158;24.748;2022-10-16T09:30:20;100560.97;;;22.68;38.68
18527;BME280;9393;42.158;24.748;2022-10-16T09:33:29;100551.00;;;23.24;37.68
18527;BME280;9393;42.158;24.748;2022-10-16T09:36:41;100563.03;;;23.13;36.50
18527;BME280;9393;42.158;24.748;2022-10-16T09:39:51;100554.44;;;23.72;36.88
18527;BME280;9393;42.158;24.748;2022-10-16T09:43:03;100553.66;;;23.24;36.22
18527;BME280;9393;42.158;24.748;2022-10-16T09:46:34;100554.63;;;23.51;36.72
18527;BME280;9393;42.158;24.748;2022-10-16T09:49:50;100545.66;;;23.72;36.64
18527;BME280;9393;42.158;24.748;2022-10-16T09:53:05;100541.81;;;24.33;34.83
18527;BME280;9393;42.158;24.748;2022-10-16T09:56:11;100536.00;;;24.62;35.05
18527;BME280;9393;42.158;24.748;2022-10-16T09:59:19;100534.63;;;24.21;35.84
18527;BME280;9393;42.158;24.748;2022-10-16T10:02:29;100529.44;;;23.60;35.97
18527;BME280;9393;42.158;24.748;2022-10-16T10:05:33;100527.72;;;23.33;36.47
18527;BME280;9393;42.158;24.748;2022-10-16T10:08:37;100523.34;;;24.19;33.68
18527;BME280;9393;42.158;24.748;2022-10-16T10:11:53;100526.00;;;24.38;33.22
18527;BME280;9393;42.158;24.748;2022-10-16T10:15:04;100517.28;;;24.82;33.02
18527;BME280;9393;42.158;24.748;2022-10-16T10:18:16;100511.25;;;24.29;33.58
18527;BME280;9393;42.158;24.748;2022-10-16T10:21:21;100513.88;;;23.96;34.31
18527;BME280;9393;42.158;24.748;2022-10-16T10:24:25;100513.09;;;23.09;34.95
18527;BME280;9393;42.158;24.748;2022-10-16T10:27:35;100514.03;;;23.49;34.90
18527;BME280;9393;42.158;24.748;2022-10-16T10:30:49;100502.88;;;23.12;34.95
18527;BME280;9393;42.158;24.748;2022-10-16T10:34:01;100503.41;;;23.49;33.84
18527;BME280;9393;42.158;24.748;2022-10-16T10:37:19;100498.72;;;24.03;33.79
18527;BME280;9393;42.158;24.748;2022-10-16T10:40:34;100495.06;;;24.18;33.07
18527;BME280;9393;42.158;24.748;2022-10-16T10:43:51;100495.22;;;23.57;33.91
18527;BME280;9393;42.158;24.748;2022-10-16T10:47:07;100487.44;;;24.28;33.67
18527;BME280;9393;42.158;24.748;2022-10-16T10:50:19;100496.28;;;23.82;33.73
18527;BME280;9393;42.158;24.748;2022-10-16T10:53:33;100485.81;;;24.13;33.76
18527;BME280;9393;42.158;24.748;2022-10-16T10:56:44;100482.50;;;23.59;34.41
18527;BME280;9393;42.158;24.748;2022-10-16T11:00:03;100476.78;;;23.69;33.74
18527;BME280;9393;42.158;24.748;2022-10-16T11:03:27;100479.88;;;24.18;33.71
18527;BME280;9393;42.158;24.748;2022-10-16T11:06:35;100475.38;;;24.05;33.46
18527;BME280;9393;42.158;24.748;2022-10-16T11:09:42;100475.69;;;23.30;34.13
18527;BME280;9393;42.158;24.748;2022-10-16T11:12:51;100471.88;;;23.72;33.59
18527;BME280;9393;42.158;24.748;2022-10-16T11:15:58;100476.78;;;23.49;33.41
18527;BME280;9393;42.158;24.748;2022-10-16T11:19:11;100478.84;;;23.93;33.77
18527;BME280;9393;42.158;24.748;2022-10-16T11:22:19;100471.06;;;23.78;33.46
18527;BME280;9393;42.158;24.748;2022-10-16T11:25:28;100467.78;;;23.56;33.63
18527;BME280;9393;42.158;24.748;2022-10-16T11:28:38;100459.19;;;23.87;32.77
18527;BME280;9393;42.158;24.748;2022-10-16T11:31:48;100463.69;;;24.06;32.62
18527;BME280;9393;42.158;24.748;2022-10-16T11:34:58;100454.66;;;23.55;33.73
18527;BME280;9393;42.158;24.748;2022-10-16T11:38:03;100449.50;;;24.39;32.46
18527;BME280;9393;42.158;24.748;2022-10-16T11:41:19;100445.66;;;23.95;32.62
18527;BME280;9393;42.158;24.748;2022-10-16T11:44:38;100455.06;;;24.37;32.19
18527;BME280;9393;42.158;24.748;2022-10-16T11:47:50;100448.34;;;23.89;32.14
18527;BME280;9393;42.158;24.748;2022-10-16T11:51:06;100449.75;;;23.78;32.13
18527;BME280;9393;42.158;24.748;2022-10-16T11:54:19;100448.72;;;23.66;32.55
18527;BME280;9393;42.158;24.748;2022-10-16T11:57:26;100447.28;;;23.44;33.23
18527;BME280;9393;42.158;24.748;2022-10-16T12:00:35;100450.38;;;23.80;32.97
18527;BME280;9393;42.158;24.748;2022-10-16T12:03:44;100454.88;;;23.86;33.35
18527;BME280;9393;42.158;24.748;2022-10-16T12:06:58;100447.47;;;24.08;32.41
18527;BME280;9393;42.158;24.748;2022-10-16T12:10:10;100450.09;;;24.47;32.00
18527;BME280;9393;42.158;24.748;2022-10-16T12:13:30;100456.94;;;24.81;31.94
18527;BME280;9393;42.158;24.748;2022-10-16T12:16:37;100454.97;;;24.57;32.24
18527;BME280;9393;42.158;24.748;2022-10-16T12:19:40;100447.47;;;24.08;32.73
18527;BME280;9393;42.158;24.748;2022-10-16T12:22:50;100452.63;;;23.57;33.03
18527;BME280;9393;42.158;24.748;2022-10-16T12:25:57;100455.91;;;23.85;32.95
18527;BME280;9393;42.158;24.748;2022-10-16T12:29:13;100456.50;;;23.94;32.75
18527;BME280;9393;42.158;24.748;2022-10-16T12:32:27;100457.69;;;24.31;31.98
18527;BME280;9393;42.158;24.748;2022-10-16T12:35:49;100454.66;;;24.07;32.61
18527;BME280;9393;42.158;24.748;2022-10-16T12:38:54;100450.03;;;24.67;32.13
18527;BME280;9393;42.158;24.748;2022-10-16T12:42:02;100449.09;;;24.29;32.89
18527;BME280;9393;42.158;24.748;2022-10-16T12:45:25;100454.59;;;24.47;32.74
18527;BME280;9393;42.158;24.748;2022-10-16T12:48:28;100452.09;;;24.58;32.10
18527;BME280;9393;42.158;24.748;2022-10-16T12:51:50;100455.88;;;24.25;31.90
18527;BME280;9393;42.158;24.748;2022-10-16T12:54:58;100459.56;;;24.17;32.14
18527;BME280;9393;42.158;24.748;2022-10-16T12:58:11;100458.75;;;24.30;32.23
18527;BME280;9393;42.158;24.748;2022-10-16T13:01:32;100451.59;;;24.17;32.14
18527;BME280;9393;42.158;24.748;2022-10-16T13:05:02;100451.81;;;24.02;32.60
18527;BME280;9393;42.158;24.748;2022-10-16T13:08:30;100465.75;;;23.65;32.85
18527;BME280;9393;42.158;24.748;2022-10-16T13:11:54;100461.44;;;23.90;33.17
18527;BME280;9393;42.158;24.748;2022-10-16T13:15:11;100461.22;;;23.46;33.40
18527;BME280;9393;42.158;24.748;2022-10-16T13:18:24;100456.94;;;23.84;33.09
18527;BME280;9393;42.158;24.748;2022-10-16T13:21:35;100455.06;;;23.98;32.91
18527;BME280;9393;42.158;24.748;2022-10-16T13:24:51;100463.88;;;24.05;32.85
18527;BME280;9393;42.158;24.748;2022-10-16T13:28:00;100461.66;;;23.95;32.81
18527;BME280;9393;42.158;24.748;2022-10-16T13:31:04;100461.22;;;24.05;32.69
18527;BME280;9393;42.158;24.748;2022-10-16T13:34:12;100463.47;;;23.55;33.48
18527;BME280;9393;42.158;24.748;2022-10-16T13:37:19;100474.97;;;22.95;34.21
18527;BME280;9393;42.158;24.748;2022-10-16T13:40:24;100474.03;;;23.23;34.09
18527;BME280;9393;42.158;24.748;2022-10-16T13:43:32;100463.69;;;23.60;33.84
18527;BME280;9393;42.158;24.748;2022-10-16T13:46:37;100468.13;;;23.34;33.68
18527;BME280;9393;42.158;24.748;2022-10-16T13:49:40;100465.19;;;23.02;33.78
18527;BME280;9393;42.158;24.748;2022-10-16T13:52:44;100463.16;;;23.17;33.98
18527;BME280;9393;42.158;24.748;2022-10-16T13:55:47;100466.44;;;23.06;34.11
18527;BME280;9393;42.158;24.748;2022-10-16T13:59:00;100465.72;;;22.44;34.64
18527;BME280;9393;42.158;24.748;2022-10-16T14:02:14;100462.59;;;22.68;34.65
18527;BME280;9393;42.158;24.748;2022-10-16T14:05:20;100466.03;;;23.09;34.50
18527;BME280;9393;42.158;24.748;2022-10-16T14:08:25;100468.50;;;23.31;33.85
18527;BME280;9393;42.158;24.748;2022-10-16T14:11:29;100469.78;;;23.41;33.95
18527;BME280;9393;42.158;24.748;2022-10-16T14:14:35;100469.31;;;23.18;34.30
18527;BME280;9393;42.158;24.748;2022-10-16T14:17:45;100475.44;;;23.05;34.87
18527;BME280;9393;42.158;24.748;2022-10-16T14:20:51;100470.63;;;22.47;34.85
18527;BME280;9393;42.158;24.748;2022-10-16T14:23:58;100465.47;;;22.73;35.02
18527;BME280;9393;42.158;24.748;2022-10-16T14:27:02;100471.31;;;22.28;35.02
18527;BME280;9393;42.158;24.748;2022-10-16T14:30:14;100468.19;;;21.90;35.82
18527;BME280;9393;42.158;24.748;2022-10-16T14:33:21;100471.91;;;21.74;36.10
18527;BME280;9393;42.158;24.748;2022-10-16T14:36:27;100473.81;;;21.80;35.96
18527;BME280;9393;42.158;24.748;2022-10-16T14:39:31;100475.97;;;21.91;35.84
18527;BME280;9393;42.158;24.748;2022-10-16T14:42:34;100476.84;;;21.98;35.59
18527;BME280;9393;42.158;24.748;2022-10-16T14:45:39;100477.84;;;21.97;35.40
18527;BME280;9393;42.158;24.748;2022-10-16T14:48:47;100475.44;;;22.02;35.60
18527;BME280;9393;42.158;24.748;2022-10-16T14:51:51;100470.78;;;21.62;35.88
18527;BME280;9393;42.158;24.748;2022-10-16T14:54:55;100477.28;;;21.59;36.37
18527;BME280;9393;42.158;24.748;2022-10-16T14:57:58;100474.47;;;21.40;36.59
18527;BME280;9393;42.158;24.748;2022-10-16T15:01:03;100477.19;;;21.10;36.71
18527;BME280;9393;42.158;24.748;2022-10-16T15:04:11;100477.63;;;21.14;36.91
18527;BME280;9393;42.158;24.748;2022-10-16T15:07:15;100482.00;;;21.07;36.81
18527;BME280;9393;42.158;24.748;2022-10-16T15:10:20;100484.78;;;21.13;37.24
18527;BME280;9393;42.158;24.748;2022-10-16T15:13:24;100471.06;;;21.10;37.54
18527;BME280;9393;42.158;24.748;2022-10-16T15:16:29;100479.56;;;21.05;37.21
18527;BME280;9393;42.158;24.748;2022-10-16T15:19:33;100483.91;;;20.92;37.17
18527;BME280;9393;42.158;24.748;2022-10-16T15:22:36;100483.81;;;20.71;37.28
18527;BME280;9393;42.158;24.748;2022-10-16T15:25:42;100485.94;;;20.60;37.99
18527;BME280;9393;42.158;24.748;2022-10-16T15:28:46;100486.75;;;20.46;38.22
18527;BME280;9393;42.158;24.748;2022-10-16T15:31:50;100491.44;;;20.44;38.29
18527;BME280;9393;42.158;24.748;2022-10-16T15:34:54;100494.63;;;20.40;38.79
18527;BME280;9393;42.158;24.748;2022-10-16T15:38:00;100498.81;;;20.49;38.67
18527;BME280;9393;42.158;24.748;2022-10-16T15:41:09;100498.34;;;20.45;38.90
18527;BME280;9393;42.158;24.748;2022-10-16T15:44:13;100501.56;;;20.55;38.50
18527;BME280;9393;42.158;24.748;2022-10-16T15:47:23;100503.75;;;20.52;38.40
18527;BME280;9393;42.158;24.748;2022-10-16T15:50:31;100514.09;;;20.47;38.33
18527;BME280;9393;42.158;24.748;2022-10-16T15:53:45;100509.22;;;20.36;38.55
18527;BME280;9393;42.158;24.748;2022-10-16T15:56:49;100517.53;;;20.33;38.31
18527;BME280;9393;42.158;24.748;2022-10-16T15:59:55;100523.47;;;20.35;38.46
18527;BME280;9393;42.158;24.748;2022-10-16T16:02:58;100523.59;;;20.18;38.67
18527;BME280;9393;42.158;24.748;2022-10-16T16:06:04;100528.59;;;20.13;38.19
18527;BME280;9393;42.158;24.748;2022-10-16T16:09:09;100534.66;;;20.22;38.63
18527;BME280;9393;42.158;24.748;2022-10-16T16:12:12;100540.13;;;20.21;38.46
18527;BME280;9393;42.158;24.748;2022-10-16T16:15:15;100539.09;;;20.07;38.82
18527;BME280;9393;42.158;24.748;2022-10-16T16:18:19;100541.72;;;19.92;39.22
18527;BME280;9393;42.158;24.748;2022-10-16T16:21:22;100546.66;;;19.95;39.59
18527;BME280;9393;42.158;24.748;2022-10-16T16:24:27;100554.94;;;19.92;39.74